Willow Street, Pennsylvania
Current Conditions -  °F | °C
As of 11:53 AM on Friday 28 Nov 2014 (Local Time) from KLNS Reporting Station
Broken Clouds Broken Clouds  
Wind Chill: 22°   Ceiling: 4800
Heat Index: 33°   Visibility: 10mi
Dew Point: 18°   Wind: 17mph
Humidity: 54%   Direction: 310°NW
Pressure: 30.24"   Gusts: NA
Location:  39.98°N, 76.27°W
Report Text: KLNS 281653Z 31015KT 10SM BKN048 01/M08 A3024 RMK AO2 SLP242 T00061078
Loading
Personal Weather Stations






























Interactive Weather Map New forecast layout! Learn more

10-Day Weather Forecast

Advertisements
Track Severe Weather on mobile